BAW232 LFBO-EGLL
Flight info
| Callsign | BAW232 |
|---|---|
| Flight time | N/A |
| Altitude | 34000 |
| Route | LACOU DCT CHALA DCT CNA DCT MANAK DCT EPAPU DCT RINSO DCT EKRAS DCT REVTU DCT BOLRO UP87 ROXOG |
| Aircraft | A35K/H-SDE2E3GHIJ3J4J5LM1ORWXY/LB1D1 |
Departure
| Time | N/A |
|---|---|
| Airport | Toulouse-Blagnac Airport (LFBO) |
Arrival
| Time | 2026-05-07 12:22 |
|---|---|
| Airport | London Heathrow Airport (EGLL) |
| Time | Latitude | Longitude | Altitude | Speed | Heading |
|---|---|---|---|---|---|
| 2026-05-07 11:46 | 48.27715 | -1.45453 | 34040 ft | 497 kts | 355° |
| 2026-05-07 11:46 | 48.31173 | -1.45702 | 34042 ft | 497 kts | 355° |
| 2026-05-07 11:47 | 48.38073 | -1.46200 | 34045 ft | 496 kts | 355° |
| 2026-05-07 11:47 | 48.44984 | -1.46703 | 34047 ft | 496 kts | 355° |
| 2026-05-07 11:48 | 48.50723 | -1.47120 | 34039 ft | 496 kts | 355° |
| 2026-05-07 11:48 | 48.57620 | -1.47621 | 34043 ft | 496 kts | 355° |
| 2026-05-07 11:49 | 48.64520 | -1.48126 | 34046 ft | 496 kts | 355° |
| 2026-05-07 11:49 | 48.71405 | -1.48631 | 34041 ft | 496 kts | 355° |
| 2026-05-07 11:50 | 48.78292 | -1.49137 | 34045 ft | 496 kts | 355° |
| 2026-05-07 11:50 | 48.85181 | -1.49645 | 34045 ft | 496 kts | 355° |
| 2026-05-07 11:51 | 48.92027 | -1.50731 | 34044 ft | 493 kts | 347° |
| 2026-05-07 11:51 | 48.98763 | -1.52750 | 34044 ft | 493 kts | 346° |
| 2026-05-07 11:52 | 49.05435 | -1.54918 | 34044 ft | 493 kts | 346° |
| 2026-05-07 11:52 | 49.12145 | -1.57113 | 34047 ft | 492 kts | 346° |
| 2026-05-07 11:53 | 49.18851 | -1.59293 | 34047 ft | 492 kts | 346° |
| 2026-05-07 11:53 | 49.25553 | -1.61466 | 34042 ft | 492 kts | 346° |
| 2026-05-07 11:54 | 49.32261 | -1.63644 | 34046 ft | 492 kts | 346° |
| 2026-05-07 11:54 | 49.38918 | -1.65812 | 34042 ft | 491 kts | 346° |
| 2026-05-07 11:55 | 49.45610 | -1.68001 | 34043 ft | 491 kts | 346° |
| 2026-05-07 11:55 | 49.52300 | -1.70193 | 34056 ft | 491 kts | 346° |
| 2026-05-07 11:56 | 49.59027 | -1.72132 | 34045 ft | 493 kts | 352° |
| 2026-05-07 11:56 | 49.65905 | -1.72151 | 34047 ft | 495 kts | 360° |
| 2026-05-07 11:57 | 49.72744 | -1.71626 | 34048 ft | 495 kts | 1° |
| 2026-05-07 11:57 | 49.79635 | -1.70997 | 34052 ft | 495 kts | 1° |
| 2026-05-07 11:58 | 49.86519 | -1.70383 | 34052 ft | 495 kts | 1° |
| 2026-05-07 11:58 | 49.93410 | -1.69791 | 34059 ft | 495 kts | 1° |
| 2026-05-07 11:59 | 50.00274 | -1.68782 | 34062 ft | 498 kts | 10° |
| 2026-05-07 11:59 | 50.06953 | -1.65827 | 34063 ft | 499 kts | 15° |
| 2026-05-07 12:00 | 50.13588 | -1.62628 | 34067 ft | 499 kts | 15° |
| 2026-05-07 12:00 | 50.20219 | -1.59409 | 34082 ft | 499 kts | 15° |
| 2026-05-07 12:01 | 50.26856 | -1.56174 | 34072 ft | 499 kts | 15° |
| 2026-05-07 12:01 | 50.30148 | -1.54571 | 33862 ft | 493 kts | 15° |
| 2026-05-07 12:01 | 50.33418 | -1.52970 | 32904 ft | 493 kts | 15° |
| 2026-05-07 12:01 | 50.36719 | -1.51352 | 31754 ft | 499 kts | 15° |
| 2026-05-07 12:02 | 50.40009 | -1.49737 | 30693 ft | 503 kts | 15° |
| 2026-05-07 12:02 | 50.43367 | -1.48082 | 29615 ft | 505 kts | 15° |
| 2026-05-07 12:02 | 50.46720 | -1.46427 | 28588 ft | 504 kts | 15° |
| 2026-05-07 12:02 | 50.50062 | -1.44776 | 27686 ft | 502 kts | 15° |
| 2026-05-07 12:03 | 50.53358 | -1.43040 | 26861 ft | 499 kts | 20° |
| 2026-05-07 12:03 | 50.56471 | -1.40684 | 26110 ft | 495 kts | 26° |
| 2026-05-07 12:03 | 50.59483 | -1.38114 | 25396 ft | 490 kts | 27° |
| 2026-05-07 12:03 | 50.62450 | -1.35543 | 24706 ft | 485 kts | 27° |
| 2026-05-07 12:04 | 50.65394 | -1.32993 | 24009 ft | 481 kts | 27° |
| 2026-05-07 12:04 | 50.68315 | -1.30466 | 23256 ft | 476 kts | 27° |
| 2026-05-07 12:04 | 50.71207 | -1.27965 | 22448 ft | 471 kts | 27° |
| 2026-05-07 12:04 | 50.74060 | -1.25498 | 21666 ft | 466 kts | 27° |
| 2026-05-07 12:05 | 50.76887 | -1.23049 | 20914 ft | 461 kts | 28° |
| 2026-05-07 12:05 | 50.79616 | -1.20399 | 20166 ft | 456 kts | 33° |
| 2026-05-07 12:05 | 50.82235 | -1.17625 | 19456 ft | 451 kts | 33° |
| 2026-05-07 12:05 | 50.84832 | -1.14871 | 18740 ft | 446 kts | 33° |
| 2026-05-07 12:06 | 50.87375 | -1.12196 | 18066 ft | 441 kts | 33° |
| 2026-05-07 12:06 | 50.89926 | -1.09530 | 17671 ft | 421 kts | 33° |
| 2026-05-07 12:06 | 50.92293 | -1.07062 | 17140 ft | 395 kts | 33° |
| 2026-05-07 12:06 | 50.94179 | -1.05101 | 16716 ft | 375 kts | 33° |
| 2026-05-07 12:07 | 50.96305 | -1.02898 | 16246 ft | 353 kts | 33° |
| 2026-05-07 12:07 | 50.98312 | -1.00820 | 15732 ft | 339 kts | 33° |
| 2026-05-07 12:07 | 51.00232 | -0.98739 | 15129 ft | 329 kts | 39° |
| 2026-05-07 12:07 | 51.01859 | -0.96251 | 14388 ft | 322 kts | 47° |
| 2026-05-07 12:08 | 51.03347 | -0.93622 | 13624 ft | 317 kts | 49° |
| 2026-05-07 12:08 | 51.04791 | -0.91029 | 12832 ft | 311 kts | 49° |
| 2026-05-07 12:08 | 51.06216 | -0.88474 | 12018 ft | 307 kts | 49° |
| 2026-05-07 12:08 | 51.07605 | -0.85989 | 11574 ft | 297 kts | 49° |
| 2026-05-07 12:09 | 51.08991 | -0.83510 | 11324 ft | 300 kts | 49° |
| 2026-05-07 12:09 | 51.10374 | -0.81038 | 11006 ft | 297 kts | 49° |
| 2026-05-07 12:09 | 51.11741 | -0.78592 | 10724 ft | 295 kts | 49° |
| 2026-05-07 12:09 | 51.13103 | -0.76156 | 10423 ft | 294 kts | 49° |
| 2026-05-07 12:10 | 51.14457 | -0.73732 | 10144 ft | 292 kts | 49° |
| 2026-05-07 12:10 | 51.15806 | -0.71314 | 9860 ft | 291 kts | 49° |
| 2026-05-07 12:10 | 51.17137 | -0.68926 | 9574 ft | 290 kts | 49° |
| 2026-05-07 12:10 | 51.18476 | -0.66530 | 9304 ft | 289 kts | 49° |
| 2026-05-07 12:11 | 51.19803 | -0.64145 | 9025 ft | 287 kts | 49° |
| 2026-05-07 12:11 | 51.21127 | -0.61761 | 8750 ft | 286 kts | 49° |
| 2026-05-07 12:11 | 51.22441 | -0.59393 | 8487 ft | 285 kts | 48° |
| 2026-05-07 12:11 | 51.23734 | -0.57062 | 8281 ft | 275 kts | 48° |
| 2026-05-07 12:12 | 51.24975 | -0.54821 | 8112 ft | 264 kts | 48° |
| 2026-05-07 12:12 | 51.26173 | -0.52656 | 7855 ft | 256 kts | 48° |
| 2026-05-07 12:12 | 51.27355 | -0.50569 | 7583 ft | 250 kts | 45° |
| 2026-05-07 12:12 | 51.28785 | -0.49060 | 7320 ft | 246 kts | 18° |
| 2026-05-07 12:13 | 51.30461 | -0.48862 | 7110 ft | 243 kts | 347° |
| 2026-05-07 12:13 | 51.31957 | -0.50025 | 7054 ft | 241 kts | 317° |
| 2026-05-07 12:13 | 51.32880 | -0.52207 | 7071 ft | 239 kts | 288° |
| 2026-05-07 12:13 | 51.33039 | -0.54825 | 7079 ft | 238 kts | 265° |
| 2026-05-07 12:14 | 51.32817 | -0.57444 | 7070 ft | 238 kts | 260° |
| 2026-05-07 12:14 | 51.32678 | -0.60079 | 7042 ft | 239 kts | 276° |
| 2026-05-07 12:14 | 51.33257 | -0.62541 | 7078 ft | 240 kts | 303° |
| 2026-05-07 12:14 | 51.34365 | -0.64541 | 7074 ft | 241 kts | 314° |
| 2026-05-07 12:15 | 51.35578 | -0.66380 | 7069 ft | 241 kts | 315° |
| 2026-05-07 12:15 | 51.36806 | -0.68203 | 7070 ft | 241 kts | 315° |
| 2026-05-07 12:15 | 51.38034 | -0.70025 | 7071 ft | 241 kts | 315° |
| 2026-05-07 12:15 | 51.39245 | -0.71884 | 7069 ft | 240 kts | 311° |
| 2026-05-07 12:16 | 51.40304 | -0.73939 | 7016 ft | 238 kts | 306° |
| 2026-05-07 12:16 | 51.41303 | -0.76039 | 6671 ft | 237 kts | 305° |
| 2026-05-07 12:16 | 51.42298 | -0.78141 | 6301 ft | 236 kts | 305° |
| 2026-05-07 12:16 | 51.43302 | -0.80213 | 5976 ft | 235 kts | 309° |
| 2026-05-07 12:17 | 51.44630 | -0.81715 | 5563 ft | 237 kts | 338° |
| 2026-05-07 12:17 | 51.46248 | -0.81949 | 5305 ft | 234 kts | 9° |
| 2026-05-07 12:17 | 51.47618 | -0.80735 | 5106 ft | 227 kts | 47° |
| 2026-05-07 12:17 | 51.48202 | -0.78497 | 4921 ft | 217 kts | 88° |
| 2026-05-07 12:18 | 51.48001 | -0.76169 | 4742 ft | 206 kts | 102° |
| 2026-05-07 12:18 | 51.47759 | -0.73951 | 4577 ft | 196 kts | 98° |
| 2026-05-07 12:18 | 51.47670 | -0.71844 | 4346 ft | 184 kts | 91° |
| 2026-05-07 12:18 | 51.47678 | -0.69843 | 4092 ft | 175 kts | 89° |
| 2026-05-07 12:19 | 51.47692 | -0.67898 | 3891 ft | 179 kts | 89° |
| 2026-05-07 12:19 | 51.47718 | -0.65744 | 3021 ft | 201 kts | 88° |
| 2026-05-07 12:19 | 51.47733 | -0.63536 | 2570 ft | 195 kts | 89° |
| 2026-05-07 12:19 | 51.47747 | -0.61409 | 2110 ft | 187 kts | 89° |
| 2026-05-07 12:20 | 51.47744 | -0.59392 | 1729 ft | 179 kts | 89° |
| 2026-05-07 12:20 | 51.47757 | -0.57404 | 1392 ft | 173 kts | 89° |
| 2026-05-07 12:20 | 51.47738 | -0.55543 | 1123 ft | 166 kts | 90° |
| 2026-05-07 12:20 | 51.47749 | -0.53702 | 785 ft | 163 kts | 88° |
| 2026-05-07 12:21 | 51.47756 | -0.51929 | 540 ft | 155 kts | 92° |
| 2026-05-07 12:21 | 51.47754 | -0.50259 | 334 ft | 144 kts | 92° |
| 2026-05-07 12:21 | 51.47753 | -0.48707 | 158 ft | 135 kts | 92° |
| 2026-05-07 12:21 | 51.47755 | -0.47250 | 95 ft | 117 kts | 89° |
| 2026-05-07 12:22 | 51.47758 | -0.46163 | 96 ft | 81 kts | 89° |
| 2026-05-07 12:22 | 51.47759 | -0.45598 | 92 ft | 29 kts | 98° |
| 2026-05-07 12:22 | 51.47684 | -0.45468 | 93 ft | 13 kts | 175° |
| 2026-05-07 12:22 | 51.47591 | -0.45465 | 92 ft | 11 kts | 179° |
| 2026-05-07 12:23 | 51.47515 | -0.45497 | 95 ft | 10 kts | 236° |
| 2026-05-07 12:23 | 51.47508 | -0.45629 | 95 ft | 14 kts | 269° |
| 2026-05-07 12:23 | 51.47510 | -0.45802 | 96 ft | 17 kts | 271° |
| 2026-05-07 12:23 | 51.47518 | -0.45988 | 97 ft | 18 kts | 268° |
| 2026-05-07 12:24 | 51.47516 | -0.46205 | 92 ft | 21 kts | 269° |
| 2026-05-07 12:24 | 51.47514 | -0.46467 | 92 ft | 25 kts | 269° |
| 2026-05-07 12:24 | 51.47510 | -0.46695 | 95 ft | 10 kts | 256° |
| 2026-05-07 12:24 | 51.47495 | -0.46833 | 96 ft | 15 kts | 267° |
| 2026-05-07 12:25 | 51.47492 | -0.47021 | 92 ft | 19 kts | 270° |
| 2026-05-07 12:25 | 51.47491 | -0.47251 | 93 ft | 22 kts | 269° |
| 2026-05-07 12:25 | 51.47490 | -0.47519 | 92 ft | 25 kts | 271° |
| 2026-05-07 12:25 | 51.47491 | -0.47819 | 92 ft | 28 kts | 269° |
| 2026-05-07 12:26 | 51.47489 | -0.48103 | 96 ft | 20 kts | 269° |
| 2026-05-07 12:26 | 51.47487 | -0.48290 | 95 ft | 11 kts | 264° |
| 2026-05-07 12:26 | 51.47429 | -0.48359 | 95 ft | 13 kts | 180° |
| 2026-05-07 12:26 | 51.47327 | -0.48358 | 95 ft | 17 kts | 179° |
| 2026-05-07 12:27 | 51.47199 | -0.48357 | 96 ft | 20 kts | 180° |
| 2026-05-07 12:27 | 51.47049 | -0.48359 | 93 ft | 23 kts | 178° |
| 2026-05-07 12:27 | 51.46997 | -0.48356 | 95 ft | 3 kts | 179° |
| 2026-05-07 12:27 | 51.46957 | -0.48355 | 96 ft | 8 kts | 179° |
| 2026-05-07 12:28 | 51.46927 | -0.48350 | 96 ft | 1 kts | 158° |
| 2026-05-07 12:28 | 51.46924 | -0.48341 | 95 ft | 1 kts | 126° |
| 2026-05-07 12:28 | 51.46918 | -0.48306 | 97 ft | 6 kts | 106° |
| 2026-05-07 12:28 | 51.46916 | -0.48258 | 97 ft | 1 kts | 91° |
| 2026-05-07 12:29 | 51.46916 | -0.48244 | 93 ft | 0 kts | 90° |